Time;durP1;ratioP1;P1;durP2;ratioP2;P2;SDS_P1;SDS_P2;PMS_P1;PMS_P2;Temp;Humidity;BMP_temperature;BMP_pressure;BME280_temperature;BME280_humidity;BME280_pressure;Samples;Min_cycle;Max_cycle;Signal;HPM_P1;HPM_P2
2022/02/18 00:02:06;;;;;;;7.82;2.58;;;;;;;;;;5008578;28;20021;-62
2022/02/18 00:04:34;;;;;;;13.45;2.15;;;;;;;;;;5008569;28;20022;-62
2022/02/18 00:07:00;;;;;;;10.32;1.40;;;;;;;;;;5008825;28;20065;-63
2022/02/18 00:09:26;;;;;;;4.65;1.33;;;;;;;;;;4991469;28;20191;-61
2022/02/18 00:11:54;;;;;;;15.82;1.70;;;;;;;;;;4989772;28;20039;-61
2022/02/18 00:14:19;;;;;;;13.27;1.83;;;;;;;;;;5007046;28;20037;-62
2022/02/18 00:16:47;;;;;;;11.18;1.65;;;;;;;;;;5008115;28;20044;-63
2022/02/18 00:19:15;;;;;;;9.13;1.33;;;;;;;;;;4991643;28;20045;-61
2022/02/18 00:21:43;;;;;;;18.42;2.05;;;;;;;;;;4989753;28;20081;-62
2022/02/18 00:24:11;;;;;;;11.90;1.98;;;;;;;;;;4973181;28;20042;-62
2022/02/18 00:26:41;;;;;;;13.52;2.03;;;;;;;;;;5005178;28;20041;-63
2022/02/18 00:29:06;;;;;;;16.95;1.67;;;;;;;;;;4990467;28;20029;-62
2022/02/18 00:31:32;;;;;;;15.80;1.58;;;;;;;;;;4990327;28;20169;-63
2022/02/18 00:33:58;;;;;;;8.82;1.80;;;;;;;;;;4992450;28;20136;-62
2022/02/18 00:36:24;;;;;;;10.52;1.55;;;;;;;;;;5006874;28;20104;-62
2022/02/18 00:38:49;;;;;;;4.65;1.85;;;;;;;;;;4990866;28;20034;-61
2022/02/18 00:41:19;;;;;;;16.40;1.63;;;;;;;;;;5007793;28;20037;-62
2022/02/18 00:43:44;;;;;;;13.75;1.55;;;;;;;;;;5006016;28;20064;-62
2022/02/18 00:46:15;;;;;;;14.00;1.58;;;;;;;;;;4976245;28;20120;-62
2022/02/18 00:48:40;;;;;;;11.90;2.25;;;;;;;;;;5009548;28;20079;-61
2022/02/18 00:51:08;;;;;;;15.80;2.22;;;;;;;;;;4995721;28;20036;-60
2022/02/18 00:53:36;;;;;;;15.75;2.03;;;;;;;;;;5009283;28;20030;-61
2022/02/18 00:56:02;;;;;;;6.78;1.05;;;;;;;;;;5010942;28;20037;-60
2022/02/18 00:58:30;;;;;;;16.70;2.05;;;;;;;;;;5009331;28;20053;-63
2022/02/18 01:00:56;;;;;;;6.38;1.67;;;;;;;;;;5009159;28;20788;-61
2022/02/18 01:03:21;;;;;;;21.38;2.10;;;;;;;;;;4992345;28;20025;-61
2022/02/18 01:05:49;;;;;;;13.05;1.45;;;;;;;;;;5010575;28;20048;-64
2022/02/18 01:08:17;;;;;;;18.98;1.30;;;;;;;;;;5009806;28;20032;-62
2022/02/18 01:10:46;;;;;;;10.93;1.30;;;;;;;;;;5010148;28;20179;-61
2022/02/18 01:13:12;;;;;;;9.52;1.67;;;;;;;;;;5011431;28;20032;-62
2022/02/18 01:15:37;;;;;;;9.50;2.10;;;;;;;;;;5010543;28;20034;-62
2022/02/18 01:18:07;;;;;;;6.13;1.42;;;;;;;;;;5007789;28;20519;-61
2022/02/18 01:20:33;;;;;;;5.40;1.00;;;;;;;;;;5008679;28;20059;-62
2022/02/18 01:23:03;;;;;;;14.25;1.88;;;;;;;;;;5010873;28;20031;-62
2022/02/18 01:25:34;;;;;;;7.20;1.58;;;;;;;;;;5010788;28;20044;-62
2022/02/18 01:28:04;;;;;;;14.95;2.17;;;;;;;;;;5009937;28;20029;-62
2022/02/18 01:30:29;;;;;;;14.10;1.85;;;;;;;;;;5009380;28;20086;-62
2022/02/18 01:32:59;;;;;;;15.95;1.95;;;;;;;;;;4993332;28;21193;-62
2022/02/18 01:35:28;;;;;;;6.22;1.40;;;;;;;;;;4994436;28;20041;-62
2022/02/18 01:37:56;;;;;;;6.28;2.35;;;;;;;;;;5007636;28;20119;-62
2022/02/18 01:40:22;;;;;;;9.82;1.52;;;;;;;;;;5011271;28;20077;-62
2022/02/18 01:42:50;;;;;;;10.73;1.85;;;;;;;;;;4992046;28;20690;-61
2022/02/18 01:45:16;;;;;;;5.93;1.85;;;;;;;;;;5005280;28;20048;-62
2022/02/18 01:47:44;;;;;;;9.73;2.13;;;;;;;;;;5010466;28;20080;-61
2022/02/18 01:50:10;;;;;;;14.18;2.03;;;;;;;;;;4993256;28;20571;-61
2022/02/18 01:52:41;;;;;;;7.43;1.35;;;;;;;;;;4983375;28;20116;-62
2022/02/18 01:55:10;;;;;;;19.48;2.55;;;;;;;;;;4990307;28;20933;-61
2022/02/18 01:57:43;;;;;;;10.13;1.58;;;;;;;;;;4974414;28;20022;-63
2022/02/18 02:00:12;;;;;;;10.68;1.45;;;;;;;;;;4996341;28;20436;-61
2022/02/18 02:02:38;;;;;;;11.30;0.95;;;;;;;;;;5010320;28;20048;-62
2022/02/18 02:05:06;;;;;;;6.25;1.10;;;;;;;;;;5005505;28;20598;-62
2022/02/18 02:07:32;;;;;;;11.68;1.60;;;;;;;;;;4991886;28;20120;-62
2022/02/18 02:09:57;;;;;;;11.15;2.08;;;;;;;;;;4992170;28;20475;-61
2022/02/18 02:12:28;;;;;;;10.18;1.70;;;;;;;;;;5008792;28;20426;-62
2022/02/18 02:14:54;;;;;;;7.60;1.55;;;;;;;;;;4992795;28;20469;-62
2022/02/18 02:17:19;;;;;;;11.07;1.50;;;;;;;;;;5009355;28;20045;-62
2022/02/18 02:19:49;;;;;;;7.30;0.80;;;;;;;;;;4992406;28;21910;-62
2022/02/18 02:22:17;;;;;;;13.65;1.65;;;;;;;;;;4992084;28;20040;-62
2022/02/18 02:24:42;;;;;;;8.23;1.77;;;;;;;;;;4992248;28;20044;-61
2022/02/18 02:27:10;;;;;;;20.08;1.98;;;;;;;;;;4991540;28;20041;-61
2022/02/18 02:29:40;;;;;;;5.93;1.88;;;;;;;;;;4990376;28;20028;-61
2022/02/18 02:32:09;;;;;;;14.52;1.45;;;;;;;;;;4993815;28;20060;-61
2022/02/18 02:34:36;;;;;;;9.82;1.60;;;;;;;;;;5008202;28;21083;-62
2022/02/18 02:37:01;;;;;;;12.43;1.40;;;;;;;;;;4995063;28;20187;-61
2022/02/18 02:39:33;;;;;;;12.75;1.65;;;;;;;;;;4988810;28;20403;-61
2022/02/18 02:42:02;;;;;;;8.25;1.38;;;;;;;;;;5009154;28;20123;-61
2022/02/18 02:44:30;;;;;;;4.50;0.95;;;;;;;;;;5008014;28;20028;-62
2022/02/18 02:46:58;;;;;;;11.43;1.65;;;;;;;;;;5008555;28;20114;-61
2022/02/18 02:49:26;;;;;;;4.35;1.23;;;;;;;;;;5010568;28;20032;-60
2022/02/18 02:51:54;;;;;;;7.10;1.42;;;;;;;;;;4992497;28;20044;-61
2022/02/18 02:54:20;;;;;;;9.07;1.35;;;;;;;;;;4990388;28;20043;-61
2022/02/18 02:56:47;;;;;;;7.95;0.88;;;;;;;;;;4991873;28;20064;-62
2022/02/18 02:59:13;;;;;;;7.88;1.20;;;;;;;;;;5006406;28;20057;-61
2022/02/18 03:01:39;;;;;;;5.95;1.45;;;;;;;;;;4991373;28;20038;-61
2022/02/18 03:04:05;;;;;;;9.23;1.40;;;;;;;;;;4990526;28;20763;-62
2022/02/18 03:06:32;;;;;;;7.72;1.20;;;;;;;;;;4978183;28;20028;-62
2022/02/18 03:09:01;;;;;;;9.88;1.40;;;;;;;;;;4989967;28;20033;-62
2022/02/18 03:11:26;;;;;;;10.57;1.98;;;;;;;;;;4990650;28;20047;-61
2022/02/18 03:13:54;;;;;;;15.32;1.35;;;;;;;;;;5006507;28;20056;-62
2022/02/18 03:19:31;;;;;;;4.20;1.60;;;;;;;;;;5008477;28;20045;-63
2022/02/18 03:21:58;;;;;;;3.75;0.93;;;;;;;;;;4994691;28;20030;-62
2022/02/18 03:24:24;;;;;;;11.35;1.65;;;;;;;;;;4994767;28;20417;-62
2022/02/18 03:26:50;;;;;;;7.30;1.60;;;;;;;;;;4990428;28;20033;-62
2022/02/18 03:29:18;;;;;;;11.75;1.80;;;;;;;;;;5007025;28;20518;-63
2022/02/18 03:31:45;;;;;;;18.90;2.25;;;;;;;;;;5009409;28;20060;-61
2022/02/18 03:34:13;;;;;;;8.38;1.50;;;;;;;;;;5008652;28;20151;-62
2022/02/18 03:36:39;;;;;;;9.77;1.67;;;;;;;;;;4991588;28;20064;-61
2022/02/18 03:39:04;;;;;;;8.20;1.17;;;;;;;;;;5003840;28;20123;-64
2022/02/18 03:41:34;;;;;;;10.25;1.60;;;;;;;;;;4973204;28;20064;-62
2022/02/18 03:44:00;;;;;;;10.57;1.45;;;;;;;;;;4972985;28;20628;-63
2022/02/18 03:46:28;;;;;;;7.53;1.50;;;;;;;;;;4991570;28;20398;-62
2022/02/18 03:48:56;;;;;;;9.65;1.30;;;;;;;;;;4993832;28;20128;-62
2022/02/18 03:51:21;;;;;;;10.38;1.70;;;;;;;;;;5004947;28;20025;-62
2022/02/18 03:53:49;;;;;;;14.90;1.38;;;;;;;;;;4989215;28;20416;-61
2022/02/18 03:56:18;;;;;;;15.55;1.90;;;;;;;;;;4989870;28;20040;-62
2022/02/18 03:58:44;;;;;;;7.65;1.40;;;;;;;;;;5007423;28;20066;-62
2022/02/18 04:01:12;;;;;;;7.13;1.17;;;;;;;;;;5006883;28;20639;-61
2022/02/18 04:03:38;;;;;;;11.05;1.38;;;;;;;;;;5008464;28;20030;-62
2022/02/18 04:06:08;;;;;;;7.53;1.05;;;;;;;;;;4993977;28;20116;-62
2022/02/18 04:08:33;;;;;;;15.70;1.20;;;;;;;;;;5006674;28;20037;-62
2022/02/18 04:11:01;;;;;;;6.60;1.08;;;;;;;;;;4991001;28;20075;-62
2022/02/18 04:13:31;;;;;;;11.95;1.35;;;;;;;;;;5008063;28;20033;-62
2022/02/18 04:15:59;;;;;;;4.68;1.15;;;;;;;;;;5007198;28;20935;-62
2022/02/18 04:18:28;;;;;;;5.25;0.70;;;;;;;;;;4990664;28;20065;-61
2022/02/18 04:20:55;;;;;;;7.57;1.35;;;;;;;;;;4996448;28;20033;-63
2022/02/18 04:23:21;;;;;;;7.80;1.35;;;;;;;;;;5011555;28;20035;-62
2022/02/18 04:25:49;;;;;;;4.45;1.20;;;;;;;;;;5013126;28;20041;-62
2022/02/18 04:28:17;;;;;;;15.40;1.38;;;;;;;;;;5012502;28;20033;-63
2022/02/18 04:30:43;;;;;;;7.78;0.90;;;;;;;;;;4997447;28;20866;-61
2022/02/18 04:33:08;;;;;;;16.15;2.47;;;;;;;;;;5008133;28;20033;-61
2022/02/18 04:35:34;;;;;;;6.75;1.38;;;;;;;;;;5013087;28;20516;-61
2022/02/18 04:38:02;;;;;;;5.38;0.85;;;;;;;;;;4997323;28;20029;-61
2022/02/18 04:40:32;;;;;;;9.48;1.23;;;;;;;;;;5012662;28;20112;-61
2022/02/18 04:42:57;;;;;;;5.30;0.80;;;;;;;;;;4978271;28;20092;-61
2022/02/18 04:45:25;;;;;;;3.83;1.02;;;;;;;;;;4997398;28;20034;-61
2022/02/18 04:47:53;;;;;;;8.40;1.20;;;;;;;;;;5009124;28;20177;-61
2022/02/18 04:50:19;;;;;;;8.57;2.53;;;;;;;;;;5010573;28;20034;-62
2022/02/18 04:52:45;;;;;;;11.23;1.45;;;;;;;;;;5011568;28;20135;-62
2022/02/18 04:55:10;;;;;;;8.27;1.83;;;;;;;;;;5013327;28;20042;-62
2022/02/18 04:57:47;;;;;;;8.98;1.20;;;;;;;;;;4992621;28;20036;-61
2022/02/18 05:00:13;;;;;;;4.40;1.00;;;;;;;;;;4980929;28;20056;-62
2022/02/18 05:02:38;;;;;;;7.93;1.60;;;;;;;;;;5009994;28;20025;-62
2022/02/18 05:05:06;;;;;;;5.90;1.15;;;;;;;;;;4980388;28;20507;-60
2022/02/18 05:07:34;;;;;;;7.20;1.45;;;;;;;;;;4960360;28;20036;-62
2022/02/18 05:10:03;;;;;;;7.80;1.58;;;;;;;;;;5012086;28;20030;-63
2022/02/18 05:12:31;;;;;;;10.43;1.60;;;;;;;;;;5009255;28;20087;-62
2022/02/18 05:14:59;;;;;;;10.15;1.60;;;;;;;;;;5012188;28;20048;-62
2022/02/18 05:17:24;;;;;;;10.95;1.20;;;;;;;;;;5012668;28;21902;-62
2022/02/18 05:19:52;;;;;;;8.52;1.65;;;;;;;;;;4993494;28;20064;-62
2022/02/18 05:22:20;;;;;;;7.05;1.27;;;;;;;;;;4975984;28;20466;-61
2022/02/18 05:24:45;;;;;;;6.25;1.23;;;;;;;;;;5013121;28;20125;-62
2022/02/18 05:27:11;;;;;;;6.53;1.45;;;;;;;;;;4976103;28;20021;-62
2022/02/18 05:29:43;;;;;;;9.70;1.73;;;;;;;;;;4978436;28;20053;-63
2022/02/18 05:32:13;;;;;;;11.75;1.85;;;;;;;;;;4979318;28;20033;-60
2022/02/18 05:34:39;;;;;;;20.30;2.55;;;;;;;;;;5009186;28;20045;-61
2022/02/18 05:37:09;;;;;;;9.52;1.52;;;;;;;;;;4993580;28;20033;-61
2022/02/18 05:39:37;;;;;;;12.82;1.75;;;;;;;;;;5010838;28;20053;-60
2022/02/18 05:42:05;;;;;;;16.65;2.90;;;;;;;;;;4993217;28;20044;-60
2022/02/18 05:44:34;;;;;;;11.18;1.40;;;;;;;;;;4994136;28;20116;-60
2022/02/18 05:47:02;;;;;;;13.50;1.95;;;;;;;;;;4979555;28;20183;-61
2022/02/18 05:49:28;;;;;;;13.63;2.10;;;;;;;;;;5009470;28;20473;-60
2022/02/18 05:51:56;;;;;;;11.00;2.47;;;;;;;;;;4992206;28;20033;-60
2022/02/18 05:54:25;;;;;;;10.52;2.33;;;;;;;;;;5009740;28;20038;-60
2022/02/18 05:56:53;;;;;;;9.85;2.50;;;;;;;;;;5009688;28;20029;-61
2022/02/18 05:59:19;;;;;;;12.73;2.28;;;;;;;;;;4996303;28;20053;-62
2022/02/18 06:01:47;;;;;;;10.15;2.30;;;;;;;;;;4977364;28;20065;-60
2022/02/18 06:04:15;;;;;;;14.77;2.20;;;;;;;;;;4993041;28;20032;-61
2022/02/18 06:06:41;;;;;;;16.80;2.50;;;;;;;;;;5010418;28;20057;-60
2022/02/18 06:09:11;;;;;;;14.68;2.40;;;;;;;;;;5011244;28;20037;-61
2022/02/18 06:11:39;;;;;;;6.70;2.10;;;;;;;;;;4975996;28;20049;-60
2022/02/18 06:14:09;;;;;;;8.63;2.03;;;;;;;;;;4994193;28;20036;-59
2022/02/18 06:16:37;;;;;;;21.20;3.10;;;;;;;;;;5012529;28;20030;-61
2022/02/18 06:19:09;;;;;;;10.32;3.20;;;;;;;;;;5007505;28;20045;-60
2022/02/18 06:21:40;;;;;;;15.75;3.08;;;;;;;;;;5009399;28;20518;-61
2022/02/18 06:24:08;;;;;;;10.48;2.65;;;;;;;;;;4991925;28;20679;-60
2022/02/18 06:26:41;;;;;;;10.00;2.50;;;;;;;;;;5008854;28;20032;-60
2022/02/18 06:29:10;;;;;;;17.58;2.75;;;;;;;;;;5008080;28;20064;-60
2022/02/18 06:31:41;;;;;;;11.90;2.35;;;;;;;;;;5010781;28;20106;-60
2022/02/18 06:34:09;;;;;;;12.10;2.10;;;;;;;;;;4992078;28;20128;-60
2022/02/18 06:36:34;;;;;;;19.80;2.45;;;;;;;;;;4992744;28;20366;-60
2022/02/18 06:39:00;;;;;;;18.60;2.92;;;;;;;;;;5009473;28;20052;-60
2022/02/18 06:41:28;;;;;;;7.85;3.08;;;;;;;;;;5004152;28;20508;-60
2022/02/18 06:43:56;;;;;;;21.13;2.75;;;;;;;;;;4990172;28;20041;-60
2022/02/18 06:46:21;;;;;;;16.95;3.28;;;;;;;;;;4975739;28;20741;-60
2022/02/18 06:48:49;;;;;;;11.77;2.97;;;;;;;;;;4993962;28;20033;-60
2022/02/18 06:51:15;;;;;;;6.40;2.88;;;;;;;;;;5009332;28;20042;-60
2022/02/18 06:53:46;;;;;;;23.35;3.85;;;;;;;;;;4992369;28;20056;-60
2022/02/18 06:56:11;;;;;;;9.75;2.97;;;;;;;;;;5007373;28;20041;-60
2022/02/18 06:58:37;;;;;;;8.82;2.60;;;;;;;;;;5008011;28;20638;-60
2022/02/18 07:01:07;;;;;;;12.77;2.95;;;;;;;;;;4991848;28;20075;-59
2022/02/18 07:03:35;;;;;;;20.13;3.63;;;;;;;;;;4991550;28;20037;-59
2022/02/18 07:06:03;;;;;;;25.17;3.35;;;;;;;;;;5008319;28;20013;-59
2022/02/18 07:08:32;;;;;;;18.08;3.33;;;;;;;;;;5005257;28;20041;-60
2022/02/18 07:11:00;;;;;;;19.58;3.38;;;;;;;;;;5007882;28;20075;-59
2022/02/18 07:13:33;;;;;;;11.57;2.95;;;;;;;;;;4994175;28;20037;-58
2022/02/18 07:15:59;;;;;;;12.27;2.97;;;;;;;;;;5003293;28;20048;-59
2022/02/18 07:18:31;;;;;;;21.50;3.97;;;;;;;;;;4995753;28;20072;-59
2022/02/18 07:20:57;;;;;;;15.75;2.80;;;;;;;;;;4991574;28;20502;-59
2022/02/18 07:23:25;;;;;;;14.93;3.38;;;;;;;;;;5009771;28;20041;-59
2022/02/18 07:25:53;;;;;;;20.35;3.70;;;;;;;;;;5007178;28;20037;-59
2022/02/18 07:28:21;;;;;;;18.73;3.83;;;;;;;;;;4981943;28;20080;-59
2022/02/18 07:30:47;;;;;;;12.38;3.88;;;;;;;;;;5008039;28;20029;-59
2022/02/18 07:33:15;;;;;;;15.98;4.13;;;;;;;;;;5005224;28;20076;-60
2022/02/18 07:35:45;;;;;;;22.58;4.18;;;;;;;;;;5004151;28;20554;-61
2022/02/18 07:38:15;;;;;;;18.65;4.78;;;;;;;;;;5007753;28;20040;-60
2022/02/18 07:40:44;;;;;;;24.88;4.85;;;;;;;;;;4973442;28;20123;-61
2022/02/18 07:43:14;;;;;;;27.42;6.85;;;;;;;;;;5009123;28;20040;-60
2022/02/18 07:45:40;;;;;;;28.58;5.35;;;;;;;;;;4990539;28;20116;-59
2022/02/18 07:48:08;;;;;;;24.40;5.63;;;;;;;;;;4991626;28;20037;-60
2022/02/18 07:50:36;;;;;;;23.13;5.50;;;;;;;;;;5005591;28;20034;-59
2022/02/18 07:53:02;;;;;;;23.30;6.25;;;;;;;;;;5008443;28;20034;-60
2022/02/18 07:55:33;;;;;;;25.75;6.78;;;;;;;;;;5003096;28;20037;-59
2022/02/18 07:57:58;;;;;;;31.58;6.65;;;;;;;;;;4992377;28;20038;-58
2022/02/18 08:00:28;;;;;;;32.72;6.78;;;;;;;;;;5007415;28;20060;-60
2022/02/18 08:02:53;;;;;;;26.23;6.28;;;;;;;;;;5007278;28;20657;-60
2022/02/18 08:05:24;;;;;;;32.83;7.40;;;;;;;;;;5006473;28;20118;-59
2022/02/18 08:07:55;;;;;;;23.00;6.00;;;;;;;;;;4976379;28;20052;-61
2022/02/18 08:10:21;;;;;;;31.83;6.20;;;;;;;;;;5007932;28;20032;-61
2022/02/18 08:12:52;;;;;;;29.17;6.25;;;;;;;;;;4990625;28;20031;-61
2022/02/18 08:15:18;;;;;;;23.23;6.40;;;;;;;;;;5007709;28;20030;-61
2022/02/18 08:17:46;;;;;;;31.23;6.20;;;;;;;;;;4989779;28;20038;-57
2022/02/18 08:20:14;;;;;;;21.33;5.75;;;;;;;;;;5006591;28;20049;-59
2022/02/18 08:22:42;;;;;;;22.63;5.18;;;;;;;;;;5006639;28;20048;-60
2022/02/18 08:25:11;;;;;;;31.65;6.95;;;;;;;;;;5008737;28;20064;-60
2022/02/18 08:27:44;;;;;;;30.38;6.88;;;;;;;;;;5006744;28;20071;-59
2022/02/18 08:30:10;;;;;;;23.63;5.20;;;;;;;;;;5008363;28;20100;-60
2022/02/18 08:32:37;;;;;;;28.60;5.07;;;;;;;;;;4989047;28;20603;-61
2022/02/18 08:35:05;;;;;;;32.00;5.80;;;;;;;;;;4986621;28;20052;-59
2022/02/18 08:37:31;;;;;;;23.73;4.43;;;;;;;;;;5008319;28;20113;-59
2022/02/18 08:39:57;;;;;;;23.60;5.22;;;;;;;;;;5007761;28;20029;-59
2022/02/18 08:42:25;;;;;;;23.90;5.75;;;;;;;;;;5001711;28;20611;-61
2022/02/18 08:44:50;;;;;;;28.88;5.50;;;;;;;;;;5007090;28;20128;-60
2022/02/18 08:47:17;;;;;;;27.17;4.82;;;;;;;;;;4992389;28;20029;-60
2022/02/18 08:49:44;;;;;;;23.27;4.97;;;;;;;;;;5006456;28;20132;-60
2022/02/18 08:52:10;;;;;;;20.85;4.93;;;;;;;;;;5006725;28;21862;-60
2022/02/18 08:54:39;;;;;;;18.45;3.95;;;;;;;;;;5008673;28;20473;-59
2022/02/18 08:57:09;;;;;;;21.20;5.00;;;;;;;;;;5005168;28;20112;-59
2022/02/18 08:59:37;;;;;;;14.77;3.15;;;;;;;;;;5006305;28;20104;-59
2022/02/18 09:02:05;;;;;;;13.77;3.38;;;;;;;;;;5005505;28;20119;-59
2022/02/18 09:04:30;;;;;;;21.40;3.05;;;;;;;;;;4987899;28;20320;-60
2022/02/18 09:06:58;;;;;;;11.75;3.70;;;;;;;;;;4994676;28;23072;-59
2022/02/18 09:09:27;;;;;;;13.48;2.80;;;;;;;;;;5010420;28;20040;-59
2022/02/18 09:11:53;;;;;;;23.92;3.15;;;;;;;;;;5012458;28;20160;-60
2022/02/18 09:14:20;;;;;;;17.15;4.07;;;;;;;;;;5009572;28;20544;-60
2022/02/18 09:16:53;;;;;;;19.17;3.20;;;;;;;;;;4997186;28;20036;-60
2022/02/18 09:19:19;;;;;;;18.73;2.90;;;;;;;;;;5010327;28;20045;-59
2022/02/18 09:21:47;;;;;;;17.42;3.13;;;;;;;;;;4996204;28;20040;-60
2022/02/18 09:24:14;;;;;;;6.15;2.03;;;;;;;;;;4992962;28;20025;-61
2022/02/18 09:26:42;;;;;;;13.68;2.60;;;;;;;;;;4984643;28;20029;-60
2022/02/18 09:29:11;;;;;;;19.52;3.42;;;;;;;;;;5010185;28;20064;-60
2022/02/18 09:31:41;;;;;;;5.32;1.77;;;;;;;;;;5011737;28;20067;-59
2022/02/18 09:34:07;;;;;;;11.48;2.65;;;;;;;;;;5009214;28;20483;-59
2022/02/18 09:36:32;;;;;;;6.20;2.45;;;;;;;;;;5011477;28;20033;-59
2022/02/18 09:39:03;;;;;;;12.60;3.00;;;;;;;;;;4991101;28;20534;-59
2022/02/18 09:41:31;;;;;;;6.63;2.42;;;;;;;;;;4994076;28;20083;-59
2022/02/18 09:43:59;;;;;;;7.28;2.13;;;;;;;;;;5008564;28;20875;-58
2022/02/18 09:46:27;;;;;;;10.80;2.78;;;;;;;;;;5009649;28;20565;-58
2022/02/18 09:48:55;;;;;;;10.10;2.40;;;;;;;;;;4996628;28;20669;-59
2022/02/18 09:51:26;;;;;;;14.05;2.67;;;;;;;;;;4995887;28;20045;-59
2022/02/18 09:53:52;;;;;;;7.88;1.92;;;;;;;;;;4992945;28;20029;-58
2022/02/18 09:56:20;;;;;;;4.97;1.92;;;;;;;;;;4991787;28;20106;-58
2022/02/18 09:58:48;;;;;;;18.80;2.70;;;;;;;;;;4991804;28;20219;-58
2022/02/18 10:01:16;;;;;;;4.15;2.25;;;;;;;;;;4996136;28;20033;-58
2022/02/18 10:03:46;;;;;;;4.28;2.22;;;;;;;;;;5010091;28;20076;-58
2022/02/18 10:06:12;;;;;;;17.50;3.35;;;;;;;;;;4991741;28;20083;-59
2022/02/18 10:08:50;;;;;;;10.52;3.03;;;;;;;;;;4990857;28;20041;-59
2022/02/18 10:11:17;;;;;;;6.70;2.58;;;;;;;;;;5008028;28;20037;-58
2022/02/18 10:13:45;;;;;;;13.90;2.70;;;;;;;;;;5008016;28;21569;-58
2022/02/18 10:16:14;;;;;;;6.45;2.78;;;;;;;;;;5007521;28;20098;-59
2022/02/18 10:19:10;;;;;;;14.65;3.50;;;;;;;;;;5006843;28;20198;-59
2022/02/18 10:21:45;;;;;;;10.30;2.80;;;;;;;;;;4991671;28;20040;-58
2022/02/18 10:24:23;;;;;;;10.55;3.08;;;;;;;;;;4990893;28;20045;-58
2022/02/18 10:26:53;;;;;;;8.98;3.60;;;;;;;;;;4988333;28;20038;-58
2022/02/18 10:29:24;;;;;;;10.45;3.03;;;;;;;;;;4984656;28;20123;-58
2022/02/18 10:31:56;;;;;;;;;;;;;;;;;;4999854;28;20922;-58
2022/02/18 10:34:24;;;;;;;11.60;3.45;;;;;;;;;;4987111;28;19990;-57
2022/02/18 10:36:51;;;;;;;12.30;3.35;;;;;;;;;;5008019;28;20400;-59
2022/02/18 10:39:26;;;;;;;10.43;3.42;;;;;;;;;;5009105;28;20044;-60
2022/02/18 10:41:59;;;;;;;11.18;3.08;;;;;;;;;;4991591;28;20120;-58
2022/02/18 10:44:27;;;;;;;9.35;3.83;;;;;;;;;;5009505;28;20094;-59
2022/02/18 10:46:58;;;;;;;6.80;3.22;;;;;;;;;;5009233;28;20029;-59
2022/02/18 10:49:32;;;;;;;7.13;2.80;;;;;;;;;;5008561;28;20033;-59
2022/02/18 10:52:03;;;;;;;9.98;3.85;;;;;;;;;;4987078;28;20168;-60
2022/02/18 10:54:33;;;;;;;5.55;3.17;;;;;;;;;;4989749;28;20048;-59
2022/02/18 10:57:17;;;;;;;11.43;3.47;;;;;;;;;;4987740;28;20037;-59
2022/02/18 10:59:45;;;;;;;12.65;4.15;;;;;;;;;;4989716;28;20060;-58
2022/02/18 11:02:13;;;;;;;7.32;3.33;;;;;;;;;;4987852;28;20033;-60
2022/02/18 11:04:40;;;;;;;9.00;3.60;;;;;;;;;;5002966;28;20057;-59
2022/02/18 11:07:09;;;;;;;7.22;3.50;;;;;;;;;;4989180;28;20048;-59
2022/02/18 11:09:37;;;;;;;7.05;3.15;;;;;;;;;;4987217;28;20037;-59
2022/02/18 11:12:10;;;;;;;6.63;3.08;;;;;;;;;;4985275;28;20049;-58
2022/02/18 11:14:37;;;;;;;5.72;2.83;;;;;;;;;;5005337;28;20172;-59
2022/02/18 11:17:05;;;;;;;8.13;2.95;;;;;;;;;;5006111;28;20044;-59
2022/02/18 11:19:32;;;;;;;6.63;3.10;;;;;;;;;;5005191;28;20049;-58
2022/02/18 11:21:59;;;;;;;11.60;3.47;;;;;;;;;;5005362;28;20495;-58
2022/02/18 11:24:25;;;;;;;4.68;2.78;;;;;;;;;;5004299;28;20029;-58
2022/02/18 11:26:53;;;;;;;11.18;3.13;;;;;;;;;;4986468;28;21576;-57
2022/02/18 11:29:24;;;;;;;8.80;3.28;;;;;;;;;;4970911;28;20130;-58
2022/02/18 11:31:52;;;;;;;6.50;3.17;;;;;;;;;;4987226;28;20034;-58
2022/02/18 11:34:41;;;;;;;7.05;3.03;;;;;;;;;;5003616;28;20493;-60
2022/02/18 11:37:21;;;;;;;5.95;3.13;;;;;;;;;;5003969;28;20129;-58
2022/02/18 11:40:15;;;;;;;5.90;2.75;;;;;;;;;;4987422;28;20038;-59
2022/02/18 11:42:47;;;;;;;4.22;2.67;;;;;;;;;;5000510;28;20038;-58
2022/02/18 11:45:16;;;;;;;6.53;3.13;;;;;;;;;;4985734;28;20065;-58
2022/02/18 11:47:42;;;;;;;5.82;2.70;;;;;;;;;;4971192;28;20163;-59
2022/02/18 11:50:11;;;;;;;5.40;2.90;;;;;;;;;;5000878;28;20045;-58
2022/02/18 11:52:55;;;;;;;5.00;2.58;;;;;;;;;;4999014;28;20144;-61
2022/02/18 11:55:35;;;;;;;4.88;3.05;;;;;;;;;;5007036;28;20068;-59
2022/02/18 11:58:16;;;;;;;8.43;2.92;;;;;;;;;;5001893;28;20149;-58
2022/02/18 12:00:50;;;;;;;6.80;3.03;;;;;;;;;;4988021;28;20056;-58
2022/02/18 12:03:16;;;;;;;3.97;2.42;;;;;;;;;;5004418;28;20033;-59
2022/02/18 12:06:22;;;;;;;6.68;2.92;;;;;;;;;;5006306;28;20029;-59
2022/02/18 12:08:52;;;;;;;4.05;2.83;;;;;;;;;;5005397;28;20054;-59
2022/02/18 12:11:23;;;;;;;6.18;2.88;;;;;;;;;;5003014;28;20049;-60
2022/02/18 12:13:52;;;;;;;5.45;2.88;;;;;;;;;;5004125;28;20034;-59
2022/02/18 12:16:18;;;;;;;4.15;2.72;;;;;;;;;;5004672;28;21969;-60
2022/02/18 12:19:02;;;;;;;4.15;2.15;;;;;;;;;;5003902;28;20585;-60
2022/02/18 12:21:30;;;;;;;6.15;2.83;;;;;;;;;;5002741;28;20110;-59
2022/02/18 12:23:55;;;;;;;4.00;2.58;;;;;;;;;;4974047;28;20079;-59
2022/02/18 12:26:24;;;;;;;5.50;2.97;;;;;;;;;;4990948;28;20100;-59
2022/02/18 12:29:12;;;;;;;4.55;2.60;;;;;;;;;;4984988;28;20036;-58
2022/02/18 12:31:54;;;;;;;3.65;2.30;;;;;;;;;;4986325;28;20037;-59
2022/02/18 12:34:29;;;;;;;3.58;2.50;;;;;;;;;;5005189;28;20025;-59
2022/02/18 12:36:57;;;;;;;6.53;2.33;;;;;;;;;;4997085;28;20041;-59
2022/02/18 12:39:38;;;;;;;4.90;2.03;;;;;;;;;;5004385;28;20794;-60
2022/02/18 12:42:10;;;;;;;2.97;2.28;;;;;;;;;;4989658;28;20681;-59
2022/02/18 12:44:43;;;;;;;5.60;2.40;;;;;;;;;;5007222;28;20018;-60
2022/02/18 12:47:13;;;;;;;5.25;2.10;;;;;;;;;;5007340;28;20044;-60
2022/02/18 12:49:44;;;;;;;5.00;1.38;;;;;;;;;;4989907;28;21198;-59
2022/02/18 12:52:14;;;;;;;1.85;0.98;;;;;;;;;;5008530;28;21911;-59
2022/02/18 12:54:49;;;;;;;2.75;1.10;;;;;;;;;;5007466;28;20024;-59
2022/02/18 12:57:22;;;;;;;11.38;0.90;;;;;;;;;;4988156;28;20057;-61
2022/02/18 12:59:54;;;;;;;1.63;0.30;;;;;;;;;;5007779;28;20076;-60
2022/02/18 13:02:40;;;;;;;4.32;0.50;;;;;;;;;;5009261;28;20060;-58
2022/02/18 13:05:10;;;;;;;4.72;1.10;;;;;;;;;;5007054;28;20703;-60
2022/02/18 13:07:36;;;;;;;1.98;0.55;;;;;;;;;;4989429;28;20140;-60
2022/02/18 13:10:06;;;;;;;14.93;1.60;;;;;;;;;;4990866;28;20029;-59
2022/02/18 13:16:07;;;;;;;8.18;0.85;;;;;;;;;;5009751;28;20086;-61
2022/02/18 13:18:35;;;;;;;10.68;1.27;;;;;;;;;;5009436;28;20033;-60
2022/02/18 13:21:01;;;;;;;6.88;1.20;;;;;;;;;;5006714;28;20116;-60
2022/02/18 13:23:27;;;;;;;7.38;1.52;;;;;;;;;;5008835;28;20029;-60
2022/02/18 13:25:57;;;;;;;10.88;1.40;;;;;;;;;;4991098;28;20038;-61
2022/02/18 13:28:26;;;;;;;15.80;2.10;;;;;;;;;;4992004;28;20448;-61
2022/02/18 13:30:58;;;;;;;18.55;1.70;;;;;;;;;;5008961;28;20040;-60
2022/02/18 13:33:28;;;;;;;15.95;2.00;;;;;;;;;;4994634;28;20140;-60
2022/02/18 13:36:06;;;;;;;13.57;2.15;;;;;;;;;;5003284;28;20566;-60
2022/02/18 13:38:32;;;;;;;16.75;1.67;;;;;;;;;;5007811;28;20080;-61
2022/02/18 13:41:13;;;;;;;14.00;2.45;;;;;;;;;;5005896;28;20033;-61
2022/02/18 13:43:51;;;;;;;9.52;1.50;;;;;;;;;;5007811;28;20099;-57
2022/02/18 13:46:28;;;;;;;17.23;2.90;;;;;;;;;;5008178;28;20041;-60
2022/02/18 13:48:58;;;;;;;16.52;1.58;;;;;;;;;;4989056;28;20095;-60
2022/02/18 13:51:31;;;;;;;17.70;2.10;;;;;;;;;;5009218;28;20036;-61
2022/02/18 13:53:57;;;;;;;15.50;2.90;;;;;;;;;;4989832;28;20033;-60
2022/02/18 13:56:27;;;;;;;32.65;3.45;;;;;;;;;;4993141;28;20131;-60
2022/02/18 13:59:14;;;;;;;17.02;1.85;;;;;;;;;;5007135;28;20047;-59
2022/02/18 14:01:42;;;;;;;32.63;2.35;;;;;;;;;;5007044;28;20038;-59
2022/02/18 14:04:15;;;;;;;15.48;2.13;;;;;;;;;;4985332;28;20973;-59
2022/02/18 14:06:43;;;;;;;13.55;1.95;;;;;;;;;;5006998;28;20076;-60
2022/02/18 14:09:10;;;;;;;17.27;1.85;;;;;;;;;;4989646;28;20040;-60
2022/02/18 14:11:45;;;;;;;21.75;2.55;;;;;;;;;;4984379;28;20151;-59
2022/02/18 14:14:17;;;;;;;13.02;2.17;;;;;;;;;;4993057;28;20029;-59
2022/02/18 14:16:51;;;;;;;18.08;2.15;;;;;;;;;;4988058;28;20025;-59
2022/02/18 14:19:17;;;;;;;14.80;2.72;;;;;;;;;;5003095;28;20080;-59
2022/02/18 14:22:00;;;;;;;16.17;2.67;;;;;;;;;;5005244;28;20055;-60
2022/02/18 14:24:37;;;;;;;15.20;2.03;;;;;;;;;;5005988;28;20042;-61
2022/02/18 14:27:09;;;;;;;16.95;2.55;;;;;;;;;;5006749;28;20099;-60
2022/02/18 14:29:36;;;;;;;21.90;2.53;;;;;;;;;;5005811;28;20036;-61
2022/02/18 14:32:07;;;;;;;18.40;2.58;;;;;;;;;;5006060;28;20068;-60
2022/02/18 14:34:32;;;;;;;14.75;2.80;;;;;;;;;;5006060;28;20137;-59
2022/02/18 14:37:04;;;;;;;14.35;2.60;;;;;;;;;;5008860;28;20048;-59
2022/02/18 14:39:43;;;;;;;11.80;2.15;;;;;;;;;;5009028;28;20475;-59
2022/02/18 14:42:15;;;;;;;32.28;3.90;;;;;;;;;;5006551;28;20034;-58
2022/02/18 14:44:45;;;;;;;45.05;5.22;;;;;;;;;;4990213;28;20037;-59
2022/02/18 14:47:14;;;;;;;24.48;3.47;;;;;;;;;;5001512;28;20654;-59
2022/02/18 14:49:40;;;;;;;20.00;3.53;;;;;;;;;;5002201;28;20021;-59
2022/02/18 14:52:08;;;;;;;29.52;4.47;;;;;;;;;;4987845;28;20028;-59
2022/02/18 14:54:34;;;;;;;26.55;3.67;;;;;;;;;;4990873;28;20099;-63